Time;durP1;ratioP1;P1;durP2;ratioP2;P2;SDS_P1;SDS_P2;PMS_P1;PMS_P2;Temp;Humidity;BMP_temperature;BMP_pressure;BME280_temperature;BME280_humidity;BME280_pressure;Samples;Min_cycle;Max_cycle;Signal;HPM_P1;HPM_P2
2023/06/11 00:00:15;;;;;;;4.68;4.10;;;21.90;99.90;;;;;;4954447;28;20198;-78
2023/06/11 00:02:43;;;;;;;4.78;4.18;;;21.90;99.90;;;;;;4954470;28;20301;-84
2023/06/11 00:05:11;;;;;;;4.18;3.80;;;21.70;99.90;;;;;;5002472;28;20240;-85
2023/06/11 00:07:38;;;;;;;4.95;4.38;;;21.60;99.90;;;;;;4990023;28;20228;-80
2023/06/11 00:10:06;;;;;;;6.25;4.15;;;21.60;99.90;;;;;;4988787;28;20196;-84
2023/06/11 00:12:34;;;;;;;6.15;4.07;;;21.40;99.90;;;;;;4987888;28;20213;-82
2023/06/11 00:15:04;;;;;;;5.70;3.80;;;21.40;99.90;;;;;;4974084;28;20200;-81
2023/06/11 00:17:33;;;;;;;5.60;4.30;;;21.10;99.90;;;;;;4982780;28;20215;-83
2023/06/11 00:20:09;;;;;;;5.15;4.20;;;21.20;99.90;;;;;;4971952;28;20255;-85
2023/06/11 00:22:38;;;;;;;4.72;3.80;;;21.30;99.90;;;;;;4976758;28;20207;-84
2023/06/11 00:25:09;;;;;;;4.68;4.25;;;21.60;99.90;;;;;;4973031;28;20201;-84
2023/06/11 00:27:37;;;;;;;4.78;4.00;;;21.70;99.90;;;;;;5007221;28;20208;-84
2023/06/11 00:30:06;;;;;;;5.50;4.07;;;21.40;99.90;;;;;;4989870;28;20224;-83
2023/06/11 00:32:35;;;;;;;4.45;4.03;;;21.20;99.90;;;;;;4990166;28;20604;-83
2023/06/11 00:35:08;;;;;;;5.40;4.18;;;21.20;99.90;;;;;;4995827;28;20205;-83
2023/06/11 00:37:37;;;;;;;6.05;3.85;;;21.30;99.90;;;;;;4989679;28;21090;-86
2023/06/11 00:40:06;;;;;;;4.35;3.63;;;21.20;99.90;;;;;;4970817;28;20681;-84
2023/06/11 00:42:33;;;;;;;4.97;3.90;;;21.30;99.90;;;;;;4989839;28;20226;-83
2023/06/11 00:45:03;;;;;;;6.15;4.32;;;21.40;99.90;;;;;;4989950;28;20216;-81
2023/06/11 00:47:33;;;;;;;5.05;4.25;;;21.40;99.90;;;;;;5007792;28;20303;-83
2023/06/11 00:50:03;;;;;;;4.07;3.55;;;21.40;99.90;;;;;;4988211;28;20204;-83
2023/06/11 00:52:31;;;;;;;5.03;3.92;;;21.50;99.90;;;;;;4989584;28;20209;-83
2023/06/11 00:54:58;;;;;;;5.70;3.95;;;21.30;99.90;;;;;;4973942;28;20200;-83
2023/06/11 00:57:26;;;;;;;5.07;3.70;;;21.40;99.90;;;;;;5007274;28;20193;-82
2023/06/11 00:59:55;;;;;;;5.43;4.32;;;21.50;99.90;;;;;;4976445;28;20197;-82
2023/06/11 01:02:22;;;;;;;4.68;4.07;;;21.60;99.90;;;;;;5008463;28;20248;-83
2023/06/11 01:04:53;;;;;;;4.22;3.78;;;21.30;99.90;;;;;;4987541;28;20236;-82
2023/06/11 01:07:22;;;;;;;6.18;4.13;;;21.10;99.90;;;;;;5006374;28;20641;-79
2023/06/11 01:09:51;;;;;;;5.72;4.25;;;21.00;99.90;;;;;;5004970;28;20221;-80
2023/06/11 01:12:20;;;;;;;4.80;3.97;;;20.90;99.90;;;;;;4981096;28;20311;-79
2023/06/11 01:14:47;;;;;;;5.30;4.38;;;21.00;99.90;;;;;;4987893;28;20732;-80
2023/06/11 01:17:40;;;;;;;4.72;4.20;;;21.20;99.90;;;;;;4989262;28;20197;-80
2023/06/11 01:20:25;;;;;;;5.20;3.65;;;21.30;99.90;;;;;;4985338;28;20243;-79
2023/06/11 01:23:15;;;;;;;6.40;4.60;;;21.10;99.90;;;;;;5004388;28;20675;-78
2023/06/11 01:25:51;;;;;;;5.10;4.18;;;20.90;99.90;;;;;;4988144;28;20208;-81
2023/06/11 01:28:24;;;;;;;4.68;4.22;;;20.90;99.90;;;;;;4974797;28;20672;-81
2023/06/11 01:30:52;;;;;;;4.82;3.92;;;21.00;99.90;;;;;;4992231;28;20205;-85
2023/06/11 01:33:20;;;;;;;4.88;4.35;;;21.10;99.90;;;;;;4991750;28;20197;-83
2023/06/11 01:35:57;;;;;;;5.50;3.90;;;21.00;99.90;;;;;;4973613;28;20289;-83
2023/06/11 01:38:34;;;;;;;5.22;3.83;;;21.10;99.90;;;;;;4988958;28;20708;-82
2023/06/11 01:41:02;;;;;;;7.30;4.50;;;21.10;99.90;;;;;;4971023;28;20644;-84
2023/06/11 01:43:32;;;;;;;5.32;4.43;;;21.10;99.90;;;;;;4991547;28;20216;-80
2023/06/11 01:46:00;;;;;;;5.40;4.20;;;21.20;99.90;;;;;;4990719;28;20566;-84
2023/06/11 01:48:27;;;;;;;4.45;3.55;;;21.00;99.90;;;;;;4993427;28;20472;-82
2023/06/11 01:50:54;;;;;;;4.60;4.00;;;20.80;99.90;;;;;;4989211;28;20711;-80
2023/06/11 01:53:21;;;;;;;6.50;4.15;;;20.90;99.90;;;;;;4987091;28;20200;-83
2023/06/11 01:55:49;;;;;;;5.57;4.55;;;20.90;99.90;;;;;;4990804;28;20196;-82
2023/06/11 01:58:17;;;;;;;4.22;3.60;;;20.80;99.90;;;;;;4972881;28;20200;-82
2023/06/11 02:00:47;;;;;;;7.38;4.38;;;20.60;99.90;;;;;;4991731;28;20201;-78
2023/06/11 02:03:15;;;;;;;5.72;4.72;;;20.60;99.90;;;;;;4988327;28;20244;-80
2023/06/11 02:05:44;;;;;;;4.78;4.05;;;20.40;99.90;;;;;;5007933;28;20185;-78
2023/06/11 02:08:13;;;;;;;5.35;4.28;;;20.30;99.90;;;;;;4988551;28;20213;-81
2023/06/11 02:10:40;;;;;;;6.55;3.97;;;20.20;99.90;;;;;;4982740;28;20198;-83
2023/06/11 02:13:07;;;;;;;5.40;3.92;;;20.30;99.90;;;;;;4992678;28;20284;-80
2023/06/11 02:15:34;;;;;;;5.85;4.30;;;20.20;99.90;;;;;;5009656;28;20256;-79
2023/06/11 02:18:01;;;;;;;6.20;4.82;;;20.10;99.90;;;;;;4991434;28;20733;-77
2023/06/11 02:20:29;;;;;;;6.03;4.35;;;20.20;99.90;;;;;;4987521;28;20197;-82
2023/06/11 02:22:56;;;;;;;4.15;3.45;;;20.50;99.90;;;;;;4976629;28;20201;-83
2023/06/11 02:25:23;;;;;;;5.07;4.28;;;20.70;99.90;;;;;;4991099;28;20197;-81
2023/06/11 02:27:54;;;;;;;4.65;3.83;;;20.50;99.90;;;;;;4984854;28;20287;-83
2023/06/11 02:30:23;;;;;;;4.85;4.20;;;20.30;99.90;;;;;;4994828;28;20694;-82
2023/06/11 02:32:51;;;;;;;7.25;4.28;;;20.30;99.90;;;;;;4979545;28;20205;-83
2023/06/11 02:35:18;;;;;;;6.88;4.40;;;20.50;99.90;;;;;;4993949;28;20189;-85
2023/06/11 02:37:45;;;;;;;5.15;4.60;;;20.20;99.90;;;;;;4989282;28;20197;-86
2023/06/11 02:40:12;;;;;;;7.05;4.05;;;20.20;99.90;;;;;;4972947;28;20212;-85
2023/06/11 02:42:40;;;;;;;7.57;4.45;;;20.30;99.90;;;;;;4989239;28;20200;-81
2023/06/11 02:45:07;;;;;;;7.70;4.53;;;20.40;99.90;;;;;;4988811;28;20286;-80
2023/06/11 02:47:36;;;;;;;4.60;3.72;;;20.50;99.90;;;;;;4988444;28;20189;-82
2023/06/11 02:50:04;;;;;;;7.30;4.97;;;20.80;99.90;;;;;;4973088;28;20201;-83
2023/06/11 02:52:31;;;;;;;8.77;4.40;;;20.70;99.90;;;;;;4988865;28;20201;-80
2023/06/11 02:54:58;;;;;;;6.93;5.40;;;20.60;99.90;;;;;;5004501;28;20707;-83
2023/06/11 02:57:25;;;;;;;7.00;5.30;;;20.30;99.90;;;;;;4989645;28;20193;-83
2023/06/11 02:59:52;;;;;;;5.25;4.22;;;20.10;99.90;;;;;;4986939;28;20205;-79
2023/06/11 03:02:20;;;;;;;7.85;4.60;;;20.00;99.90;;;;;;4971678;28;20205;-79
2023/06/11 03:04:49;;;;;;;4.97;4.25;;;19.80;99.90;;;;;;4986673;28;20287;-82
2023/06/11 03:07:16;;;;;;;5.28;4.63;;;19.80;99.90;;;;;;4985758;28;20196;-77
2023/06/11 03:09:45;;;;;;;5.30;4.40;;;20.00;99.90;;;;;;4971972;28;20312;-82
2023/06/11 03:12:13;;;;;;;5.80;4.60;;;19.90;99.90;;;;;;4987947;28;20682;-80
2023/06/11 03:14:40;;;;;;;6.55;4.55;;;20.10;99.90;;;;;;4984274;28;20193;-80
2023/06/11 03:17:08;;;;;;;5.85;4.55;;;20.20;99.90;;;;;;4986399;28;20201;-81
2023/06/11 03:19:35;;;;;;;5.55;3.95;;;20.20;99.90;;;;;;4986787;28;20239;-79
2023/06/11 03:22:03;;;;;;;6.50;4.38;;;20.00;99.90;;;;;;4986061;28;20288;-77
2023/06/11 03:24:30;;;;;;;4.45;4.03;;;20.00;99.90;;;;;;5001844;28;20209;-76
2023/06/11 03:27:08;;;;;;;5.05;4.50;;;20.30;99.90;;;;;;4986098;28;20199;-76
2023/06/11 03:29:36;;;;;;;7.10;4.25;;;20.20;99.90;;;;;;4988596;28;20224;-77
2023/06/11 03:32:05;;;;;;;7.28;5.07;;;20.20;99.90;;;;;;4984166;28;20288;-76
2023/06/11 03:34:32;;;;;;;5.47;4.47;;;20.10;99.90;;;;;;4986557;28;20220;-78
2023/06/11 03:36:59;;;;;;;7.90;4.43;;;20.00;99.90;;;;;;4984440;28;20217;-79
2023/06/11 03:39:27;;;;;;;7.43;4.78;;;20.10;99.90;;;;;;4985127;28;20208;-77
2023/06/11 03:41:56;;;;;;;9.73;4.75;;;20.00;99.90;;;;;;4987636;28;20292;-78
2023/06/11 03:44:27;;;;;;;4.50;4.00;;;20.00;99.90;;;;;;4986319;28;20637;-76
2023/06/11 03:46:55;;;;;;;5.15;4.43;;;19.90;99.90;;;;;;4986523;28;20196;-77
2023/06/11 03:49:22;;;;;;;6.07;4.60;;;20.10;99.90;;;;;;4990285;28;20209;-76
2023/06/11 03:51:49;;;;;;;5.43;4.43;;;20.30;99.90;;;;;;4986244;28;20267;-80
2023/06/11 03:54:17;;;;;;;4.55;3.85;;;20.40;99.90;;;;;;5006679;28;20275;-77
2023/06/11 03:56:44;;;;;;;6.25;4.60;;;20.70;99.90;;;;;;4990463;28;20519;-78
2023/06/11 03:59:11;;;;;;;5.82;4.25;;;20.80;99.90;;;;;;4990065;28;20209;-77
2023/06/11 04:01:38;;;;;;;5.78;4.60;;;21.10;99.90;;;;;;4991765;28;20688;-75
2023/06/11 04:04:05;;;;;;;5.20;4.45;;;21.30;99.90;;;;;;4990935;28;20283;-76
2023/06/11 04:06:38;;;;;;;6.43;4.15;;;21.40;99.90;;;;;;4985558;28;20744;-77
2023/06/11 04:09:06;;;;;;;5.50;4.03;;;21.90;99.90;;;;;;4970688;28;20311;-76
2023/06/11 04:11:34;;;;;;;8.38;4.32;;;22.10;99.90;;;;;;4985654;28;20197;-75
2023/06/11 04:14:04;;;;;;;5.57;3.90;;;22.40;99.90;;;;;;4987266;28;20292;-77
2023/06/11 04:16:33;;;;;;;6.43;4.05;;;22.30;99.90;;;;;;4986692;28;20532;-76
2023/06/11 04:19:01;;;;;;;5.80;4.53;;;22.60;99.90;;;;;;4974638;28;20811;-79
2023/06/11 04:21:29;;;;;;;7.35;5.47;;;22.70;99.90;;;;;;4985016;28;20258;-79
2023/06/11 04:23:56;;;;;;;11.70;7.45;;;23.10;99.90;;;;;;4972196;28;20200;-80
2023/06/11 04:26:25;;;;;;;20.58;14.38;;;23.60;99.90;;;;;;4987050;28;20205;-80
2023/06/11 04:28:52;;;;;;;11.15;8.40;;;23.90;99.90;;;;;;5003043;28;20243;-75
2023/06/11 04:31:26;;;;;;;11.55;7.63;;;24.10;99.90;;;;;;4987337;28;20296;-76
2023/06/11 04:34:02;;;;;;;6.10;4.80;;;24.20;99.90;;;;;;5000099;28;20204;-78
2023/06/11 04:36:32;;;;;;;8.60;5.30;;;24.60;99.90;;;;;;4971937;28;20728;-78
2023/06/11 04:39:03;;;;;;;6.45;5.38;;;24.40;99.90;;;;;;4969880;28;20763;-79
2023/06/11 04:41:32;;;;;;;8.63;4.85;;;24.50;99.90;;;;;;4985112;28;20244;-78
2023/06/11 04:44:00;;;;;;;9.90;7.05;;;24.60;99.90;;;;;;4997463;28;20197;-79
2023/06/11 04:46:32;;;;;;;7.72;4.90;;;24.50;99.90;;;;;;4986311;28;20209;-76
2023/06/11 04:49:02;;;;;;;10.50;8.45;;;24.90;99.90;;;;;;4984563;28;20247;-76
2023/06/11 04:51:32;;;;;;;8.35;6.25;;;24.70;99.90;;;;;;4985074;28;20201;-77
2023/06/11 04:54:07;;;;;;;5.68;4.57;;;24.50;99.90;;;;;;4998299;28;20639;-77
2023/06/11 04:56:38;;;;;;;5.32;4.80;;;24.60;99.90;;;;;;4975976;28;20189;-75
2023/06/11 04:59:07;;;;;;;5.55;4.95;;;24.60;99.90;;;;;;4990761;28;20208;-75
2023/06/11 05:01:37;;;;;;;5.57;4.15;;;24.60;99.90;;;;;;4985242;28;20223;-79
2023/06/11 05:04:06;;;;;;;7.30;5.10;;;24.50;99.90;;;;;;4990188;28;20248;-78
2023/06/11 05:06:33;;;;;;;7.13;4.90;;;24.40;99.90;;;;;;4988450;28;20455;-77
2023/06/11 05:09:03;;;;;;;7.20;4.15;;;25.00;99.90;;;;;;4986459;28;20688;-82
2023/06/11 05:11:31;;;;;;;6.65;4.50;;;25.30;99.90;;;;;;4987961;28;20642;-78
2023/06/11 05:13:58;;;;;;;7.03;4.63;;;25.50;99.90;;;;;;4986922;28;20185;-77
2023/06/11 05:16:26;;;;;;;7.22;4.22;;;25.80;99.90;;;;;;4973724;28;20196;-76
2023/06/11 05:18:54;;;;;;;7.10;5.28;;;26.00;99.90;;;;;;4988307;28;20287;-76
2023/06/11 05:21:23;;;;;;;5.13;4.53;;;26.10;99.90;;;;;;4991403;28;20711;-79
2023/06/11 05:23:50;;;;;;;5.60;4.50;;;25.80;99.90;;;;;;5010327;28;20720;-77
2023/06/11 05:26:18;;;;;;;6.15;4.13;;;25.80;99.90;;;;;;4985105;28;20204;-77
2023/06/11 05:28:47;;;;;;;7.60;4.97;;;26.20;99.90;;;;;;4984770;28;20355;-77
2023/06/11 05:31:16;;;;;;;5.22;4.13;;;26.20;99.90;;;;;;4987277;28;20815;-79
2023/06/11 05:33:46;;;;;;;6.10;4.18;;;26.50;99.90;;;;;;4991337;28;20197;-79
2023/06/11 05:36:13;;;;;;;4.25;3.85;;;26.50;99.90;;;;;;4974124;28;20192;-79
2023/06/11 05:38:42;;;;;;;6.18;4.13;;;26.90;99.90;;;;;;4990552;28;20209;-80
2023/06/11 05:41:09;;;;;;;5.38;4.25;;;27.40;99.90;;;;;;4992649;28;20193;-77
2023/06/11 05:43:37;;;;;;;4.65;4.25;;;27.00;99.90;;;;;;4991886;28;20199;-76
2023/06/11 05:46:04;;;;;;;7.80;4.63;;;27.70;99.90;;;;;;4977019;28;20201;-78
2023/06/11 05:48:32;;;;;;;4.32;3.92;;;27.40;99.90;;;;;;4984332;28;20269;-81
2023/06/11 05:51:00;;;;;;;5.60;4.25;;;27.50;99.90;;;;;;4984379;28;20189;-75
2023/06/11 05:53:27;;;;;;;5.07;3.65;;;27.70;99.90;;;;;;4990030;28;20193;-75
2023/06/11 05:56:03;;;;;;;6.15;3.95;;;27.90;99.90;;;;;;4992315;28;20193;-78
2023/06/11 05:58:33;;;;;;;5.95;4.30;;;28.60;99.90;;;;;;4990956;28;20216;-75
2023/06/11 06:01:03;;;;;;;5.82;4.45;;;29.00;99.90;;;;;;4990904;28;20200;-76
2023/06/11 06:03:36;;;;;;;6.97;4.70;;;28.70;99.90;;;;;;4991575;28;20237;-76
2023/06/11 06:06:05;;;;;;;4.45;3.70;;;28.70;99.90;;;;;;4975703;28;20561;-77
2023/06/11 06:08:32;;;;;;;4.90;3.72;;;29.10;99.90;;;;;;4990587;28;20189;-74
2023/06/11 06:11:03;;;;;;;5.65;3.85;;;29.00;99.90;;;;;;4990067;28;20205;-81
2023/06/11 06:13:30;;;;;;;8.15;4.65;;;29.30;99.90;;;;;;4974808;28;20197;-75
2023/06/11 06:16:00;;;;;;;6.32;4.28;;;29.40;99.90;;;;;;4988724;28;20205;-78
2023/06/11 06:18:29;;;;;;;4.40;3.97;;;29.10;99.90;;;;;;4971331;28;20737;-79
2023/06/11 06:20:58;;;;;;;7.35;4.10;;;29.60;99.90;;;;;;4996448;28;20205;-80
2023/06/11 06:23:25;;;;;;;4.85;4.28;;;30.50;99.90;;;;;;4976862;28;20205;-80
2023/06/11 06:26:06;;;;;;;5.03;4.40;;;29.60;99.60;;;;;;4986961;28;20205;-79
2023/06/11 06:28:35;;;;;;;5.30;4.43;;;29.70;99.90;;;;;;4989133;28;20645;-81
2023/06/11 06:31:07;;;;;;;4.82;3.92;;;30.00;99.90;;;;;;4990071;28;20200;-80
2023/06/11 06:33:37;;;;;;;8.50;4.75;;;30.10;99.90;;;;;;4991692;28;20604;-78
2023/06/11 06:36:05;;;;;;;6.22;4.63;;;30.60;99.90;;;;;;4989670;28;20263;-78
2023/06/11 06:38:35;;;;;;;5.65;4.00;;;30.70;99.80;;;;;;4991081;28;20729;-80
2023/06/11 06:41:03;;;;;;;4.20;3.80;;;31.50;99.90;;;;;;4991398;28;20283;-81
2023/06/11 06:43:30;;;;;;;6.32;4.13;;;32.10;99.80;;;;;;5004995;28;20193;-81
2023/06/11 06:45:58;;;;;;;4.80;3.92;;;32.20;96.50;;;;;;4988106;28;20391;-79
2023/06/11 06:48:29;;;;;;;5.53;4.30;;;32.00;98.20;;;;;;4984677;28;20732;-80
2023/06/11 06:51:00;;;;;;;6.00;4.20;;;32.00;97.00;;;;;;4982120;28;20217;-78
2023/06/11 06:53:27;;;;;;;9.68;4.50;;;31.90;97.40;;;;;;4986640;28;20196;-79
2023/06/11 06:55:55;;;;;;;9.23;4.03;;;32.70;97.80;;;;;;4987957;28;20223;-78
2023/06/11 06:58:22;;;;;;;7.38;4.22;;;33.50;96.50;;;;;;4974005;28;20212;-79
2023/06/11 07:00:51;;;;;;;4.53;3.63;;;35.10;96.50;;;;;;4970990;28;20781;-78
2023/06/11 07:03:21;;;;;;;5.43;4.30;;;35.70;95.20;;;;;;4987961;28;20274;-79
2023/06/11 07:05:48;;;;;;;4.63;3.88;;;36.10;95.10;;;;;;4987166;28;20204;-79
2023/06/11 07:08:16;;;;;;;4.32;3.58;;;34.50;93.70;;;;;;4988316;28;20201;-78
2023/06/11 07:10:50;;;;;;;4.03;3.63;;;35.10;94.20;;;;;;4971084;28;20211;-79
2023/06/11 07:13:24;;;;;;;4.13;3.58;;;36.00;94.30;;;;;;4972730;28;20664;-79
2023/06/11 07:15:53;;;;;;;5.88;3.72;;;35.70;93.70;;;;;;4974047;28;20202;-78
2023/06/11 07:18:21;;;;;;;4.05;3.65;;;35.10;92.50;;;;;;4971912;28;20211;-78
2023/06/11 07:20:48;;;;;;;5.50;4.85;;;34.30;92.10;;;;;;4986968;28;20205;-80
2023/06/11 07:23:16;;;;;;;5.13;4.57;;;34.30;92.50;;;;;;4988833;28;20189;-79
2023/06/11 07:25:48;;;;;;;6.85;3.67;;;34.70;92.40;;;;;;5000578;28;20232;-80
2023/06/11 07:28:17;;;;;;;8.57;4.07;;;34.40;93.40;;;;;;4996474;28;20657;-79
2023/06/11 07:30:45;;;;;;;4.10;3.70;;;34.90;92.50;;;;;;5007442;28;20732;-79
2023/06/11 07:33:17;;;;;;;12.43;4.32;;;35.90;92.70;;;;;;5007208;28;20204;-79
2023/06/11 07:35:48;;;;;;;5.43;4.30;;;36.20;91.70;;;;;;4989663;28;20189;-79
2023/06/11 07:38:17;;;;;;;5.05;4.35;;;35.70;91.20;;;;;;4989296;28;20684;-80
2023/06/11 07:40:44;;;;;;;4.28;3.83;;;35.30;90.70;;;;;;4978626;28;20253;-79
2023/06/11 07:43:12;;;;;;;5.68;4.00;;;35.00;90.70;;;;;;4973501;28;20222;-79
2023/06/11 07:45:40;;;;;;;4.72;4.22;;;36.30;91.10;;;;;;4974648;28;20242;-78
2023/06/11 07:48:08;;;;;;;4.93;3.90;;;35.90;90.10;;;;;;5008365;28;20193;-78
2023/06/11 07:50:35;;;;;;;5.68;4.43;;;36.70;90.50;;;;;;4985844;28;20216;-80
2023/06/11 07:53:02;;;;;;;5.68;3.55;;;35.80;87.40;;;;;;4985484;28;20288;-80
2023/06/11 07:55:30;;;;;;;4.75;4.20;;;35.90;88.20;;;;;;4987407;28;20208;-80
2023/06/11 07:57:57;;;;;;;5.10;4.10;;;36.80;89.10;;;;;;4987710;28;20551;-80
2023/06/11 08:00:24;;;;;;;3.88;3.45;;;36.90;86.30;;;;;;5003444;28;20258;-80
2023/06/11 08:02:53;;;;;;;7.90;4.38;;;36.90;88.40;;;;;;4987784;28;20288;-78
2023/06/11 08:05:21;;;;;;;6.57;4.13;;;36.50;86.40;;;;;;4992403;28;20272;-78
2023/06/11 08:07:49;;;;;;;5.60;4.68;;;36.60;83.00;;;;;;4972269;28;20244;-78
2023/06/11 08:10:16;;;;;;;4.20;3.80;;;36.60;86.40;;;;;;4973055;28;20685;-80
2023/06/11 08:12:43;;;;;;;4.57;4.10;;;37.30;85.70;;;;;;5001474;28;20584;-78
2023/06/11 08:15:11;;;;;;;6.97;4.35;;;36.80;85.50;;;;;;4969285;28;20267;-79
2023/06/11 08:17:39;;;;;;;5.28;4.35;;;35.10;83.00;;;;;;4988561;28;20204;-78
2023/06/11 08:20:07;;;;;;;5.30;4.80;;;34.40;83.70;;;;;;4984045;28;20752;-80
2023/06/11 08:22:36;;;;;;;4.57;4.03;;;33.10;78.00;;;;;;4979992;28;20285;-79
2023/06/11 08:25:05;;;;;;;6.28;4.00;;;34.70;99.80;;;;;;4980168;28;20318;-78
2023/06/11 08:27:33;;;;;;;6.90;4.47;;;35.70;86.10;;;;;;4979719;28;21241;-79
2023/06/11 08:30:02;;;;;;;5.43;3.88;;;37.00;85.40;;;;;;4966567;28;20732;-80
2023/06/11 08:32:29;;;;;;;7.20;4.47;;;38.10;83.40;;;;;;4981822;28;20804;-81
2023/06/11 08:35:00;;;;;;;3.95;3.60;;;38.30;80.10;;;;;;4969359;28;20710;-79
2023/06/11 08:37:27;;;;;;;4.07;3.60;;;37.70;81.30;;;;;;4969201;28;20704;-79
2023/06/11 08:39:55;;;;;;;4.60;3.75;;;38.30;80.70;;;;;;4984557;28;20197;-78
2023/06/11 08:42:22;;;;;;;4.13;3.63;;;39.40;79.00;;;;;;4951418;28;20193;-79
2023/06/11 08:44:50;;;;;;;8.38;4.70;;;36.90;87.10;;;;;;4984040;28;20320;-84
2023/06/11 08:47:20;;;;;;;5.03;3.95;;;35.00;74.40;;;;;;4988045;28;20200;-80
2023/06/11 08:49:49;;;;;;;4.88;3.92;;;36.70;78.90;;;;;;4985896;28;20696;-81
2023/06/11 08:52:17;;;;;;;4.32;3.92;;;37.70;78.50;;;;;;4987735;28;20203;-78
2023/06/11 08:54:47;;;;;;;6.00;4.07;;;38.20;75.70;;;;;;4991645;28;20197;-80
2023/06/11 08:57:14;;;;;;;6.90;3.92;;;37.20;75.20;;;;;;4992648;28;20680;-80
2023/06/11 08:59:41;;;;;;;6.07;4.20;;;38.40;74.10;;;;;;4988261;28;20564;-81
2023/06/11 09:02:08;;;;;;;5.93;3.58;;;36.60;74.80;;;;;;4990640;28;20793;-79
2023/06/11 09:04:35;;;;;;;4.78;3.88;;;36.50;73.40;;;;;;4990136;28;20716;-79
2023/06/11 09:07:03;;;;;;;5.60;3.95;;;36.70;73.60;;;;;;4991031;28;20192;-78
2023/06/11 09:09:30;;;;;;;4.78;3.80;;;38.10;73.50;;;;;;4984544;28;20194;-78
2023/06/11 09:11:57;;;;;;;7.80;4.13;;;37.20;72.10;;;;;;4974259;28;20618;-81
2023/06/11 09:14:24;;;;;;;4.40;4.00;;;36.60;71.20;;;;;;4972806;28;20579;-77
2023/06/11 09:16:53;;;;;;;4.43;4.03;;;36.80;68.90;;;;;;4968974;28;20200;-80
2023/06/11 09:19:20;;;;;;;5.18;3.47;;;36.50;69.50;;;;;;4986703;28;20206;-79
2023/06/11 09:21:52;;;;;;;3.97;3.58;;;36.20;70.30;;;;;;4990212;28;20672;-82
2023/06/11 09:24:22;;;;;;;4.47;3.67;;;35.60;69.50;;;;;;4990382;28;20197;-81
2023/06/11 09:26:54;;;;;;;4.50;4.10;;;34.70;69.80;;;;;;4988705;28;20205;-81
2023/06/11 09:29:26;;;;;;;7.53;4.57;;;35.40;70.20;;;;;;4992364;28;20201;-82
2023/06/11 09:32:09;;;;;;;4.53;4.05;;;35.20;68.70;;;;;;4984590;28;20262;-81
2023/06/11 09:34:56;;;;;;;4.18;3.72;;;35.00;67.20;;;;;;4981196;28;20534;-79
2023/06/11 09:37:23;;;;;;;4.40;3.97;;;35.50;66.80;;;;;;4989593;28;20228;-77
2023/06/11 09:39:51;;;;;;;5.53;3.88;;;35.40;67.80;;;;;;4973869;28;20201;-80
2023/06/11 09:42:27;;;;;;;4.32;3.55;;;36.70;67.90;;;;;;4955363;28;20208;-80
2023/06/11 09:44:59;;;;;;;6.05;3.65;;;35.80;67.30;;;;;;4989994;28;20195;-78
2023/06/11 09:47:31;;;;;;;4.68;3.80;;;35.80;66.40;;;;;;4986393;28;20205;-78
2023/06/11 09:49:58;;;;;;;5.63;3.65;;;36.20;63.40;;;;;;4974860;28;20220;-79
2023/06/11 09:52:29;;;;;;;5.85;3.90;;;36.00;65.40;;;;;;4971969;28;20193;-80
2023/06/11 09:54:57;;;;;;;5.88;4.00;;;36.10;65.50;;;;;;5005810;28;20583;-79
2023/06/11 09:57:26;;;;;;;5.22;3.95;;;35.90;63.40;;;;;;5000078;28;20366;-78
2023/06/11 09:59:53;;;;;;;5.85;4.72;;;36.30;65.20;;;;;;5000448;28;20205;-81
2023/06/11 10:02:22;;;;;;;4.38;3.95;;;35.70;59.30;;;;;;4969417;28;20197;-81
2023/06/11 10:04:50;;;;;;;4.22;3.50;;;35.50;62.20;;;;;;4980583;28;20547;-81
2023/06/11 10:07:19;;;;;;;8.63;3.67;;;36.30;59.50;;;;;;4986714;28;20201;-82
2023/06/11 10:09:50;;;;;;;6.13;3.53;;;34.90;61.10;;;;;;4983557;28;20709;-81
2023/06/11 10:12:20;;;;;;;4.68;3.70;;;35.10;59.70;;;;;;4973615;28;20618;-82
2023/06/11 10:14:52;;;;;;;6.00;4.00;;;33.90;57.70;;;;;;4973526;28;20203;-82
2023/06/11 10:17:22;;;;;;;4.40;3.40;;;34.50;60.80;;;;;;4988945;28;20708;-82
2023/06/11 10:19:49;;;;;;;5.35;3.65;;;35.40;83.00;;;;;;4984366;28;20798;-82
2023/06/11 10:22:34;;;;;;;3.78;3.10;;;34.90;58.20;;;;;;4982222;28;20653;-82
2023/06/11 10:25:03;;;;;;;4.20;3.38;;;35.30;56.90;;;;;;4988845;28;20185;-82
2023/06/11 10:27:38;;;;;;;4.65;3.47;;;34.70;54.90;;;;;;4970261;28;20700;-82
2023/06/11 10:30:08;;;;;;;4.97;3.45;;;36.30;56.60;;;;;;5002289;28;20224;-82
2023/06/11 10:32:48;;;;;;;4.20;3.45;;;35.90;56.30;;;;;;4990012;28;20208;-82
2023/06/11 10:35:24;;;;;;;5.38;3.30;;;36.30;57.40;;;;;;4991853;28;20683;-82
2023/06/11 10:38:02;;;;;;;5.15;3.55;;;36.30;55.10;;;;;;4987077;28;20192;-82
2023/06/11 10:40:38;;;;;;;6.38;3.30;;;36.10;54.50;;;;;;4986390;28;20209;-82
2023/06/11 10:43:22;;;;;;;4.10;3.10;;;35.50;54.70;;;;;;4986788;28;20189;-82
2023/06/11 10:46:12;;;;;;;3.67;3.22;;;35.80;53.60;;;;;;4953905;28;20224;-81
2023/06/11 10:48:50;;;;;;;4.95;3.65;;;35.80;54.40;;;;;;4990428;28;20205;-82
2023/06/11 10:51:18;;;;;;;3.60;3.25;;;35.70;55.00;;;;;;4973561;28;20328;-82
2023/06/11 10:53:55;;;;;;;3.20;2.80;;;35.10;53.00;;;;;;4991841;28;20580;-81
2023/06/11 10:56:23;;;;;;;5.50;3.60;;;35.30;56.50;;;;;;4973822;28;20556;-81
2023/06/11 10:58:50;;;;;;;4.28;3.35;;;34.80;53.10;;;;;;4955841;28;20198;-81
2023/06/11 11:01:22;;;;;;;4.57;3.50;;;35.00;54.70;;;;;;4989113;28;20205;-81
2023/06/11 11:03:50;;;;;;;6.65;3.97;;;35.10;53.30;;;;;;4986297;28;20240;-81
2023/06/11 11:06:29;;;;;;;4.70;3.65;;;34.30;52.50;;;;;;4969418;28;20680;-81
2023/06/11 11:08:57;;;;;;;6.82;3.88;;;33.90;53.00;;;;;;4986926;28;20207;-80
2023/06/11 11:11:26;;;;;;;7.03;3.83;;;33.70;50.80;;;;;;5001733;28;20725;-80
2023/06/11 11:13:54;;;;;;;5.75;4.05;;;35.00;51.50;;;;;;4985128;28;20642;-83
2023/06/11 11:16:21;;;;;;;4.47;3.72;;;34.40;52.40;;;;;;4971864;28;20213;-83
2023/06/11 11:18:50;;;;;;;4.10;3.60;;;34.10;51.10;;;;;;4988142;28;20635;-82
2023/06/11 11:21:18;;;;;;;3.88;3.17;;;34.00;52.50;;;;;;4986652;28;20225;-81
2023/06/11 11:23:49;;;;;;;3.72;3.22;;;33.70;52.00;;;;;;4990459;28;20232;-80
2023/06/11 11:26:17;;;;;;;4.32;3.90;;;34.00;53.10;;;;;;4973293;28;20200;-81
2023/06/11 11:28:45;;;;;;;4.70;3.67;;;34.00;52.30;;;;;;4982828;28;20288;-81
2023/06/11 11:31:17;;;;;;;4.70;3.38;;;33.30;52.00;;;;;;4988174;28;20217;-80
2023/06/11 11:33:47;;;;;;;5.20;3.13;;;33.80;52.60;;;;;;4984776;28;20202;-82
2023/06/11 11:36:14;;;;;;;5.72;3.10;;;33.90;52.30;;;;;;4988240;28;20288;-84
2023/06/11 11:38:41;;;;;;;5.80;3.92;;;33.50;51.80;;;;;;4981606;28;20623;-79
2023/06/11 11:41:11;;;;;;;4.65;3.40;;;33.40;51.50;;;;;;4982960;28;20268;-80
2023/06/11 11:43:43;;;;;;;5.25;3.20;;;33.20;50.70;;;;;;4984153;28;20692;-82
2023/06/11 11:46:17;;;;;;;5.53;3.47;;;33.70;52.00;;;;;;4985660;28;20288;-78
2023/06/11 11:48:45;;;;;;;4.57;3.60;;;34.10;50.80;;;;;;4969030;28;20275;-79
2023/06/11 11:51:15;;;;;;;4.20;3.55;;;34.30;51.70;;;;;;4985913;28;20222;-78
2023/06/11 11:53:42;;;;;;;5.63;3.97;;;34.40;50.00;;;;;;4985536;28;20206;-81
2023/06/11 11:56:10;;;;;;;5.82;3.67;;;34.20;50.80;;;;;;4985296;28;20235;-82
2023/06/11 11:58:39;;;;;;;4.15;3.30;;;34.60;50.50;;;;;;4972152;28;20202;-82
2023/06/11 12:01:15;;;;;;;4.07;3.55;;;33.00;51.60;;;;;;4969297;28;20224;-84
2023/06/11 12:03:42;;;;;;;4.25;3.53;;;32.90;50.90;;;;;;4974682;28;20336;-78
2023/06/11 12:06:10;;;;;;;4.68;3.80;;;33.00;50.80;;;;;;4981906;28;20190;-77
2023/06/11 12:08:40;;;;;;;4.90;3.03;;;33.50;49.40;;;;;;4980909;28;20205;-77
2023/06/11 12:11:07;;;;;;;3.75;3.05;;;33.30;49.50;;;;;;4985655;28;20221;-78
2023/06/11 12:13:35;;;;;;;5.53;3.72;;;33.30;50.20;;;;;;4986322;28;20204;-85
2023/06/11 12:16:02;;;;;;;4.95;3.42;;;33.00;48.80;;;;;;4996934;28;20276;-84
2023/06/11 12:18:32;;;;;;;4.03;3.60;;;32.80;49.40;;;;;;5003069;28;20300;-83
2023/06/11 12:20:59;;;;;;;6.03;3.78;;;32.60;52.40;;;;;;4978262;28;20197;-86
2023/06/11 12:23:27;;;;;;;4.47;3.70;;;32.70;50.20;;;;;;4993286;28;20776;-82
2023/06/11 12:25:54;;;;;;;5.90;4.45;;;32.50;49.50;;;;;;4972311;28;20284;-87
2023/06/11 12:28:21;;;;;;;4.10;3.63;;;31.80;50.20;;;;;;4994022;28;20252;-88
2023/06/11 12:30:48;;;;;;;3.90;3.50;;;31.80;51.50;;;;;;4980346;28;20792;-86
2023/06/11 12:33:16;;;;;;;6.30;4.15;;;31.10;49.30;;;;;;4980537;28;20198;-83
2023/06/11 12:35:43;;;;;;;6.07;3.60;;;30.80;50.90;;;;;;4985075;28;20280;-86
2023/06/11 12:38:11;;;;;;;4.53;4.13;;;31.30;52.20;;;;;;4984909;28;20697;-85
2023/06/11 12:40:38;;;;;;;5.15;3.88;;;31.40;54.40;;;;;;5000707;28;20206;-85
2023/06/11 12:43:05;;;;;;;4.13;3.67;;;31.60;75.10;;;;;;4985321;28;20613;-89
2023/06/11 12:45:36;;;;;;;5.20;4.20;;;31.30;51.80;;;;;;4993239;28;20293;-88
2023/06/11 12:48:05;;;;;;;7.57;4.07;;;31.40;52.00;;;;;;4987425;28;20194;-90
2023/06/11 12:50:32;;;;;;;8.77;3.97;;;30.80;53.90;;;;;;4983501;28;20212;-88
2023/06/11 12:53:00;;;;;;;6.78;4.40;;;31.20;54.50;;;;;;4970101;28;20193;-82
2023/06/11 12:55:27;;;;;;;8.45;4.50;;;31.30;53.20;;;;;;4966447;28;20308;-81